createdAt,value
2019-03-15T00:01:49.252Z,6.91
2019-03-15T00:04:17.872Z,6.90
2019-03-15T00:06:46.582Z,6.95
2019-03-15T00:09:15.252Z,7.00
2019-03-15T00:11:43.905Z,6.95
2019-03-15T00:14:12.616Z,6.90
2019-03-15T00:16:41.352Z,6.91
2019-03-15T00:19:09.994Z,6.95
2019-03-15T00:21:38.701Z,6.93
2019-03-15T00:24:07.419Z,6.92
2019-03-15T00:26:36.070Z,6.88
2019-03-15T00:29:05.326Z,6.84
2019-03-15T00:31:34.019Z,6.74
2019-03-15T00:34:02.647Z,6.75
2019-03-15T00:36:31.262Z,6.72
2019-03-15T00:39:00.177Z,6.75
2019-03-15T00:41:28.729Z,6.67
2019-03-15T00:43:57.350Z,6.66
2019-03-15T00:46:26.111Z,6.61
2019-03-15T00:48:55.766Z,6.55
2019-03-15T00:51:24.594Z,6.55
2019-03-15T00:53:54.522Z,6.55
2019-03-15T00:56:23.590Z,6.58
2019-03-15T00:58:52.311Z,6.55
2019-03-15T01:01:20.928Z,6.55
2019-03-15T01:03:49.648Z,6.57
2019-03-15T01:06:18.397Z,6.60
2019-03-15T01:08:47.186Z,6.60
2019-03-15T01:11:15.929Z,6.62
2019-03-15T01:13:44.603Z,6.59
2019-03-15T01:16:13.462Z,6.59
2019-03-15T01:18:42.173Z,6.59
2019-03-15T01:21:10.833Z,6.56
2019-03-15T01:23:39.466Z,6.58
2019-03-15T01:26:08.155Z,6.56
2019-03-15T01:28:36.917Z,6.51
2019-03-15T01:31:05.580Z,6.52
2019-03-15T01:33:34.171Z,6.59
2019-03-15T01:36:02.839Z,6.49
2019-03-15T01:38:31.433Z,6.48
2019-03-15T01:41:00.217Z,6.49
2019-03-15T01:43:29.924Z,6.49
2019-03-15T01:45:58.659Z,6.48
2019-03-15T01:48:27.341Z,6.47
2019-03-15T01:50:56.159Z,6.53
2019-03-15T01:53:24.716Z,6.51
2019-03-15T01:55:53.818Z,6.44
2019-03-15T01:58:22.542Z,6.37
2019-03-15T02:00:51.412Z,6.28
2019-03-15T02:03:20.148Z,6.30
2019-03-15T02:05:48.879Z,6.30
2019-03-15T02:08:17.635Z,6.30
2019-03-15T02:10:46.389Z,6.29
2019-03-15T02:13:15.102Z,6.32
2019-03-15T02:15:43.717Z,6.39
2019-03-15T02:18:12.416Z,6.37
2019-03-15T02:20:41.157Z,6.41
2019-03-15T02:23:09.831Z,6.45
2019-03-15T02:25:38.505Z,6.45
2019-03-15T02:28:07.204Z,6.47
2019-03-15T02:30:35.916Z,6.42
2019-03-15T02:33:06.231Z,6.36
2019-03-15T02:35:35.131Z,6.30
2019-03-15T02:38:04.850Z,6.30
2019-03-15T02:40:33.542Z,6.11
2019-03-15T02:43:02.265Z,6.23
2019-03-15T02:45:31.014Z,6.23
2019-03-15T02:47:59.640Z,6.24
2019-03-15T02:50:29.206Z,6.23
2019-03-15T02:52:58.279Z,6.26
2019-03-15T02:55:26.911Z,6.26
2019-03-15T02:57:55.510Z,6.25
2019-03-15T03:00:24.381Z,6.25
2019-03-15T03:02:54.007Z,6.29
2019-03-15T03:05:23.066Z,6.29
2019-03-15T03:07:51.872Z,6.29
2019-03-15T03:10:20.590Z,6.27
2019-03-15T03:12:49.186Z,6.24
2019-03-15T03:15:17.793Z,6.24
2019-03-15T03:17:46.535Z,6.28
2019-03-15T03:20:15.162Z,6.28
2019-03-15T03:22:43.913Z,6.28
2019-03-15T03:25:12.586Z,6.26
2019-03-15T03:27:41.270Z,6.29
2019-03-15T03:30:11.757Z,6.30
2019-03-15T03:32:44.153Z,6.35
2019-03-15T03:35:12.334Z,6.28
2019-03-15T03:37:41.983Z,6.24
2019-03-15T03:40:10.639Z,6.21
2019-03-15T03:42:39.359Z,6.21
2019-03-15T03:45:09.716Z,6.22
2019-03-15T03:47:38.510Z,6.22
2019-03-15T03:50:09.706Z,6.23
2019-03-15T03:52:41.510Z,6.19
2019-03-15T03:55:08.863Z,6.20
2019-03-15T03:57:37.590Z,6.18
2019-03-15T04:00:11.735Z,6.10
2019-03-15T04:02:40.658Z,6.13
2019-03-15T04:05:09.382Z,6.13
2019-03-15T04:07:37.996Z,6.12
2019-03-15T04:10:09.970Z,6.12
2019-03-15T04:12:38.592Z,6.12
2019-03-15T04:15:10.002Z,6.11
2019-03-15T04:17:38.627Z,6.12
2019-03-15T04:20:13.199Z,6.10
2019-03-15T04:22:42.621Z,6.13
2019-03-15T04:25:11.494Z,6.19
2019-03-15T04:27:40.182Z,6.18
2019-03-15T04:30:11.977Z,6.28
2019-03-15T04:32:40.617Z,6.22
2019-03-15T04:35:09.238Z,6.24
2019-03-15T04:37:37.863Z,6.21
2019-03-15T04:40:09.457Z,6.26
2019-03-15T04:42:38.185Z,6.27
2019-03-15T04:45:09.161Z,6.29
2019-03-15T04:47:43.434Z,6.34
2019-03-15T04:50:10.554Z,6.38
2019-03-15T04:52:39.314Z,6.44
2019-03-15T04:55:07.946Z,6.49
2019-03-15T04:57:36.778Z,6.49
2019-03-15T05:00:08.361Z,6.41
2019-03-15T05:02:36.906Z,6.53
2019-03-15T05:05:06.929Z,6.50
2019-03-15T05:07:36.148Z,6.55
2019-03-15T05:10:10.324Z,6.59
2019-03-15T05:12:38.981Z,6.59
2019-03-15T05:15:10.518Z,6.66
2019-03-15T05:17:39.395Z,6.69
2019-03-15T05:20:10.400Z,6.70
2019-03-15T05:22:39.209Z,6.70
2019-03-15T05:25:08.330Z,6.62
2019-03-15T05:27:37.011Z,6.49
2019-03-15T05:30:08.508Z,6.55
2019-03-15T05:32:37.194Z,6.51
2019-03-15T05:35:06.738Z,6.53
2019-03-15T05:37:35.675Z,6.54
2019-03-15T05:40:07.684Z,6.50
2019-03-15T05:42:36.370Z,6.48
2019-03-15T05:45:08.204Z,6.51
2019-03-15T05:47:36.983Z,6.54
2019-03-15T05:50:08.917Z,6.58
2019-03-15T05:52:38.160Z,6.52
2019-03-15T05:55:12.899Z,6.61
2019-03-15T05:57:41.523Z,6.63
2019-03-15T06:00:16.297Z,6.62
2019-03-15T06:02:45.186Z,6.63
2019-03-15T06:05:14.015Z,6.58
2019-03-15T06:07:42.700Z,6.61
2019-03-15T06:10:13.819Z,6.53
2019-03-15T06:12:42.540Z,6.59
2019-03-15T06:15:11.561Z,6.61
2019-03-15T06:17:40.307Z,6.60
2019-03-15T06:20:13.131Z,6.62
2019-03-15T06:22:41.801Z,6.70
2019-03-15T06:25:11.691Z,6.70
2019-03-15T06:27:40.383Z,6.67
2019-03-15T06:30:13.984Z,6.78
2019-03-15T06:32:42.622Z,6.74
2019-03-15T06:35:11.446Z,6.72
2019-03-15T06:37:40.284Z,6.70
2019-03-15T06:40:13.737Z,6.70
2019-03-15T06:42:43.134Z,6.75
2019-03-15T06:45:15.923Z,6.76
2019-03-15T06:47:44.495Z,6.80
2019-03-15T06:50:13.782Z,6.87
2019-03-15T06:52:42.517Z,6.86
2019-03-15T06:55:11.174Z,6.84
2019-03-15T06:57:39.891Z,6.90
2019-03-15T07:00:11.076Z,6.90
2019-03-15T07:02:39.813Z,6.93
2019-03-15T07:05:12.168Z,6.97
2019-03-15T07:07:40.284Z,7.00
2019-03-15T07:10:11.007Z,7.03
2019-03-15T07:12:40.444Z,7.00
2019-03-15T07:15:14.332Z,7.02
2019-03-15T07:17:42.963Z,7.08
2019-03-15T07:20:16.262Z,7.11
2019-03-15T07:22:44.919Z,7.11
2019-03-15T07:25:13.827Z,7.12
2019-03-15T07:27:43.175Z,7.12
2019-03-15T07:30:15.457Z,7.09
2019-03-15T07:32:44.140Z,7.06
2019-03-15T07:35:12.795Z,7.08
2019-03-15T07:37:41.426Z,7.13
2019-03-15T07:40:14.175Z,7.12
2019-03-15T07:42:42.858Z,7.04
2019-03-15T07:45:14.495Z,7.03
2019-03-15T07:47:44.082Z,7.05
2019-03-15T07:50:15.350Z,7.09
2019-03-15T07:52:44.038Z,7.12
2019-03-15T07:55:12.819Z,7.15
2019-03-15T07:57:41.357Z,7.15
2019-03-15T08:00:18.597Z,7.21
2019-03-15T08:02:47.185Z,7.18
2019-03-15T08:05:15.893Z,7.17
2019-03-15T08:07:45.792Z,7.18
2019-03-15T08:10:15.037Z,7.14
2019-03-15T08:12:43.652Z,7.11
2019-03-15T08:15:14.708Z,7.18
2019-03-15T08:17:43.368Z,7.18
2019-03-15T08:20:14.679Z,7.18
2019-03-15T08:22:43.400Z,7.19
2019-03-15T08:25:12.499Z,7.13
2019-03-15T08:27:41.359Z,7.09
2019-03-15T08:30:15.738Z,6.90
2019-03-15T08:32:44.523Z,7.09
2019-03-15T08:35:14.510Z,7.03
2019-03-15T08:37:43.236Z,6.99
2019-03-15T08:40:15.721Z,6.97
2019-03-15T08:42:44.486Z,7.00
2019-03-15T08:45:18.718Z,7.00
2019-03-15T08:47:47.811Z,6.99
2019-03-15T08:50:19.072Z,7.04
2019-03-15T08:52:47.715Z,7.09
2019-03-15T08:55:16.498Z,7.14
2019-03-15T08:57:45.166Z,7.08
2019-03-15T09:00:19.040Z,7.09
2019-03-15T09:02:47.733Z,7.13
2019-03-15T09:05:18.986Z,7.16
2019-03-15T09:07:47.672Z,7.15
2019-03-15T09:10:24.174Z,7.24
2019-03-15T09:12:50.546Z,7.23
2019-03-15T09:15:19.184Z,7.24
2019-03-15T09:17:47.858Z,7.26
2019-03-15T09:20:16.726Z,7.31
2019-03-15T09:22:45.549Z,7.30
2019-03-15T09:25:19.751Z,7.38
2019-03-15T09:27:46.661Z,7.43
2019-03-15T09:30:24.775Z,7.37
2019-03-15T09:32:47.318Z,7.49
2019-03-15T09:35:15.960Z,7.54
2019-03-15T09:37:47.230Z,7.53
2019-03-15T09:40:18.163Z,7.57
2019-03-15T09:42:46.804Z,7.66
2019-03-15T09:45:19.232Z,7.74
2019-03-15T09:47:48.435Z,7.82
2019-03-15T09:50:33.202Z,7.84
2019-03-15T09:52:48.604Z,7.87
2019-03-15T09:55:17.263Z,8.08
2019-03-15T09:57:46.055Z,8.21
2019-03-15T10:00:20.313Z,7.67
2019-03-15T10:02:48.966Z,8.38
2019-03-15T10:05:17.659Z,8.48
2019-03-15T10:07:46.356Z,8.57
2019-03-15T10:10:19.355Z,8.66
2019-03-15T10:12:48.064Z,8.74
2019-03-15T10:15:19.848Z,8.75
2019-03-15T10:17:48.681Z,8.83
2019-03-15T10:20:17.368Z,8.88
2019-03-15T10:22:46.018Z,8.99
2019-03-15T10:25:16.557Z,9.03
2019-03-15T10:27:45.166Z,9.07
2019-03-15T10:30:18.543Z,9.15
2019-03-15T10:32:47.182Z,9.21
2019-03-15T10:35:16.013Z,9.25
2019-03-15T10:37:44.655Z,9.32
2019-03-15T10:40:39.835Z,9.40
2019-03-15T10:43:08.592Z,9.51
2019-03-15T10:45:37.270Z,9.75
2019-03-15T10:48:08.138Z,9.98
2019-03-15T10:50:36.274Z,10.31
2019-03-15T10:53:05.573Z,10.71
2019-03-15T10:55:34.714Z,10.71
2019-03-15T10:58:03.381Z,10.85
2019-03-15T11:00:33.212Z,11.10
2019-03-15T11:03:02.138Z,11.16
2019-03-15T11:05:31.130Z,11.16
2019-03-15T11:07:59.901Z,11.17
2019-03-15T11:10:28.705Z,11.27
2019-03-15T11:12:57.419Z,11.37
2019-03-15T11:15:26.132Z,11.53
2019-03-15T11:17:54.938Z,11.63
2019-03-15T11:20:24.463Z,11.72
2019-03-15T11:22:53.327Z,11.94
2019-03-15T11:25:22.232Z,11.94
2019-03-15T11:27:51.151Z,12.13
2019-03-15T11:30:19.970Z,12.24
2019-03-15T11:32:48.873Z,12.37
2019-03-15T11:35:20.932Z,12.37
2019-03-15T11:37:48.134Z,12.58
2019-03-15T11:40:19.465Z,12.71
2019-03-15T11:42:48.499Z,12.86
2019-03-15T11:45:20.597Z,12.77
2019-03-15T11:48:03.367Z,12.80
2019-03-15T11:50:23.959Z,12.80
2019-03-15T11:52:53.026Z,12.82
2019-03-15T11:55:25.879Z,12.75
2019-03-15T11:57:55.381Z,12.71
2019-03-15T12:00:24.184Z,12.60
2019-03-15T12:02:54.187Z,12.56
2019-03-15T12:05:24.386Z,12.54
2019-03-15T12:08:00.219Z,12.53
2019-03-15T12:10:34.528Z,12.27
2019-03-15T12:13:03.594Z,11.79
2019-03-15T12:15:32.350Z,11.68
2019-03-15T12:18:03.118Z,11.73
2019-03-15T12:20:33.702Z,11.87
2019-03-15T12:23:02.536Z,11.86
2019-03-15T12:25:31.634Z,11.91
2019-03-15T12:28:02.624Z,11.82
2019-03-15T12:30:32.462Z,11.79
2019-03-15T12:33:02.212Z,11.78
2019-03-15T12:35:31.203Z,11.84
2019-03-15T12:38:00.091Z,11.88
2019-03-15T12:40:28.884Z,11.89
2019-03-15T12:42:59.070Z,12.03
2019-03-15T12:45:28.074Z,12.26
2019-03-15T12:48:00.190Z,12.27
2019-03-15T12:50:29.025Z,12.24
2019-03-15T12:52:57.853Z,12.26
2019-03-15T12:55:27.922Z,12.31
2019-03-15T12:57:56.774Z,12.35
2019-03-15T13:00:27.328Z,12.28
2019-03-15T13:02:56.198Z,12.47
2019-03-15T13:05:25.993Z,12.58
2019-03-15T13:07:54.767Z,12.48
2019-03-15T13:10:24.734Z,12.34
2019-03-15T13:12:53.376Z,12.34
2019-03-15T13:15:25.226Z,12.28
2019-03-15T13:17:54.012Z,12.27
2019-03-15T13:20:25.250Z,12.33
2019-03-15T13:22:55.712Z,12.44
2019-03-15T13:25:25.034Z,12.69
2019-03-15T13:27:54.652Z,12.85
2019-03-15T13:30:23.972Z,12.64
2019-03-15T13:32:56.890Z,12.61
2019-03-15T13:35:26.093Z,12.55
2019-03-15T13:37:54.857Z,12.26
2019-03-15T13:40:25.025Z,12.24
2019-03-15T13:42:53.895Z,12.18
2019-03-15T13:45:22.729Z,12.01
2019-03-15T13:47:51.470Z,11.98
2019-03-15T13:50:22.145Z,11.72
2019-03-15T13:52:50.837Z,11.56
2019-03-15T13:55:19.539Z,11.45
2019-03-15T13:57:48.209Z,11.36
2019-03-15T14:00:18.041Z,11.35
2019-03-15T14:02:47.857Z,11.43
2019-03-15T14:05:16.669Z,11.54
2019-03-15T14:07:45.471Z,11.65
2019-03-15T14:10:15.998Z,11.76
2019-03-15T14:12:45.048Z,11.85
2019-03-15T14:15:18.135Z,11.87
2019-03-15T14:17:47.101Z,11.95
2019-03-15T14:20:15.999Z,11.89
2019-03-15T14:22:45.030Z,11.87
2019-03-15T14:25:21.194Z,11.85
2019-03-15T14:27:49.926Z,11.85
2019-03-15T14:30:18.787Z,11.85
2019-03-15T14:32:47.633Z,11.87
2019-03-15T14:35:16.357Z,11.82
2019-03-15T14:37:45.373Z,11.81
2019-03-15T14:40:14.261Z,11.89
2019-03-15T14:42:43.158Z,12.01
2019-03-15T14:45:14.242Z,12.11
2019-03-15T14:47:43.062Z,12.24
2019-03-15T14:50:14.227Z,12.15
2019-03-15T14:52:42.926Z,12.29
2019-03-15T14:55:14.150Z,12.22
2019-03-15T14:57:52.102Z,12.28
2019-03-15T15:00:16.770Z,12.23
2019-03-15T15:02:45.939Z,12.20
2019-03-15T15:05:16.035Z,12.15
2019-03-15T15:07:47.339Z,11.95
2019-03-15T15:10:18.207Z,11.88
2019-03-15T15:12:53.337Z,11.80
2019-03-15T15:15:22.254Z,11.77
2019-03-15T15:17:50.954Z,11.78
2019-03-15T15:20:19.723Z,11.77
2019-03-15T15:22:48.514Z,11.77
2019-03-15T15:25:20.244Z,11.73
2019-03-15T15:27:49.926Z,11.70
2019-03-15T15:30:19.268Z,11.75
2019-03-15T15:32:48.061Z,11.80
2019-03-15T15:35:16.906Z,11.73
2019-03-15T15:37:47.924Z,11.74
2019-03-15T15:40:19.692Z,11.75
2019-03-15T15:42:49.086Z,11.74
2019-03-15T15:45:17.955Z,11.74
2019-03-15T15:47:46.856Z,11.66
2019-03-15T15:50:17.621Z,11.62
2019-03-15T15:52:46.363Z,11.64
2019-03-15T15:55:16.678Z,11.62
2019-03-15T15:57:45.401Z,11.52
2019-03-15T16:00:16.020Z,11.45
2019-03-15T16:02:44.898Z,11.39
2019-03-15T16:05:13.881Z,11.38
2019-03-15T16:07:42.702Z,11.28
2019-03-15T16:10:13.646Z,11.33
2019-03-15T16:12:42.514Z,11.31
2019-03-15T16:15:16.770Z,11.23
2019-03-15T16:17:46.042Z,11.18
2019-03-15T16:20:15.040Z,11.14
2019-03-15T16:22:43.827Z,11.12
2019-03-15T16:25:13.657Z,10.99
2019-03-15T16:27:50.533Z,10.93
2019-03-15T16:30:23.594Z,10.91
2019-03-15T16:32:53.059Z,10.84
2019-03-15T16:35:21.840Z,10.73
2019-03-15T16:37:50.638Z,10.72
2019-03-15T16:40:20.123Z,10.65
2019-03-15T16:42:49.614Z,10.55
2019-03-15T16:45:30.541Z,10.54
2019-03-15T16:47:59.168Z,10.49
2019-03-15T16:50:27.962Z,10.46
2019-03-15T16:52:56.792Z,10.34
2019-03-15T16:55:25.503Z,10.24
2019-03-15T16:57:58.118Z,10.26
2019-03-15T17:00:27.350Z,10.20
2019-03-15T17:02:56.375Z,10.16
2019-03-15T17:05:32.313Z,10.08
2019-03-15T17:08:01.066Z,10.09
2019-03-15T17:10:32.416Z,9.98
2019-03-15T17:13:01.142Z,9.94
2019-03-15T17:15:29.933Z,9.88
2019-03-15T17:17:58.745Z,9.78
2019-03-15T17:20:27.546Z,9.66
2019-03-15T17:22:56.331Z,8.52
2019-03-15T17:25:25.136Z,9.52
2019-03-15T17:27:53.901Z,9.48
2019-03-15T17:30:22.794Z,9.45
2019-03-15T17:32:51.663Z,9.40
2019-03-15T17:35:21.511Z,9.41
2019-03-15T17:37:50.245Z,9.39
2019-03-15T17:40:21.636Z,9.42
2019-03-15T17:42:51.056Z,9.38
2019-03-15T17:45:20.368Z,9.38
2019-03-15T17:47:49.138Z,9.31
2019-03-15T17:50:28.566Z,9.28
2019-03-15T17:52:57.368Z,9.29
2019-03-15T17:55:26.001Z,9.22
2019-03-15T17:57:54.855Z,9.14
2019-03-15T18:00:36.515Z,9.21
2019-03-15T18:03:20.002Z,9.11
2019-03-15T18:05:38.124Z,7.98
2019-03-15T18:08:07.396Z,8.91
2019-03-15T18:10:37.998Z,8.86
2019-03-15T18:13:06.966Z,8.81
2019-03-15T18:15:36.629Z,8.70
2019-03-15T18:18:06.461Z,8.71
2019-03-15T18:20:36.083Z,8.71
2019-03-15T18:23:05.221Z,8.71
2019-03-15T18:25:34.113Z,8.28
2019-03-15T18:28:04.509Z,8.67
2019-03-15T18:30:33.394Z,8.69
2019-03-15T18:33:02.282Z,8.67
2019-03-15T18:35:36.594Z,8.67
2019-03-15T18:38:05.323Z,8.55
2019-03-15T18:40:34.367Z,8.49
2019-03-15T18:43:03.664Z,8.52
2019-03-15T18:45:32.420Z,8.47
2019-03-15T18:48:01.259Z,8.42
2019-03-15T18:50:30.378Z,8.37
2019-03-15T18:52:59.448Z,8.31
2019-03-15T18:55:28.320Z,8.31
2019-03-15T18:57:57.098Z,8.33
2019-03-15T19:00:26.734Z,8.29
2019-03-15T19:02:59.807Z,8.25
2019-03-15T19:05:29.023Z,8.26
2019-03-15T19:07:57.763Z,8.26
2019-03-15T19:10:28.089Z,8.17
2019-03-15T19:12:57.191Z,8.15
2019-03-15T19:15:25.932Z,8.16
2019-03-15T19:17:54.724Z,8.09
2019-03-15T19:20:23.506Z,8.09
2019-03-15T19:22:52.227Z,8.03
2019-03-15T19:25:21.034Z,8.09
2019-03-15T19:27:50.988Z,8.03
2019-03-15T19:30:20.974Z,8.02
2019-03-15T19:32:49.866Z,8.01
2019-03-15T19:35:18.748Z,8.00
2019-03-15T19:37:47.714Z,6.94
2019-03-15T19:40:19.630Z,8.04
2019-03-15T19:42:49.131Z,8.01
2019-03-15T19:45:19.553Z,8.05
2019-03-15T19:47:51.609Z,7.98
2019-03-15T19:50:22.121Z,7.94
2019-03-15T19:52:52.682Z,7.89
2019-03-15T19:55:22.648Z,7.94
2019-03-15T19:57:52.264Z,7.90
2019-03-15T20:00:23.842Z,7.87
2019-03-15T20:02:55.237Z,7.84
2019-03-15T20:05:26.038Z,7.90
2019-03-15T20:07:55.713Z,7.93
2019-03-15T20:10:26.292Z,7.89
2019-03-15T20:12:56.672Z,7.89
2019-03-15T20:15:26.604Z,7.93
2019-03-15T20:17:55.749Z,7.83
2019-03-15T20:20:24.792Z,7.78
2019-03-15T20:22:54.586Z,7.76
2019-03-15T20:25:24.229Z,7.73
2019-03-15T20:27:55.202Z,7.78
2019-03-15T20:30:26.809Z,7.83
2019-03-15T20:32:58.662Z,7.72
2019-03-15T20:35:28.359Z,7.72
2019-03-15T20:37:58.347Z,7.75
2019-03-15T20:40:28.435Z,7.68
2019-03-15T20:42:57.375Z,7.72
2019-03-15T20:45:31.655Z,7.68
2019-03-15T20:48:06.222Z,7.73
2019-03-15T20:50:46.663Z,7.61
2019-03-15T20:53:12.679Z,7.61
2019-03-15T20:55:40.056Z,7.60
2019-03-15T20:58:10.041Z,7.59
2019-03-15T21:00:39.641Z,7.58
2019-03-15T21:03:09.461Z,7.59
2019-03-15T21:05:38.728Z,7.56
2019-03-15T21:08:08.820Z,7.67
2019-03-15T21:10:41.050Z,7.73
2019-03-15T21:13:11.323Z,7.78
2019-03-15T21:15:40.330Z,7.80
2019-03-15T21:18:09.220Z,7.74
2019-03-15T21:20:38.090Z,7.75
2019-03-15T21:23:07.112Z,7.78
2019-03-15T21:25:42.435Z,7.83
2019-03-15T21:28:11.392Z,7.77
2019-03-15T21:30:48.403Z,7.77
2019-03-15T21:33:12.031Z,7.76
2019-03-15T21:35:47.326Z,7.48
2019-03-15T21:38:16.300Z,7.71
2019-03-15T21:40:45.329Z,6.69
2019-03-15T21:43:14.334Z,7.79
2019-03-15T21:45:44.877Z,7.81
2019-03-15T21:48:13.827Z,7.79
2019-03-15T21:50:42.603Z,7.83
2019-03-15T21:53:11.517Z,7.85
2019-03-15T21:55:42.032Z,7.91
2019-03-15T21:58:12.177Z,7.89
2019-03-15T22:00:42.891Z,7.90
2019-03-15T22:03:11.838Z,7.95
2019-03-15T22:05:40.859Z,8.02
2019-03-15T22:08:09.643Z,7.97
2019-03-15T22:10:38.444Z,7.96
2019-03-15T22:13:07.894Z,7.97
2019-03-15T22:15:36.754Z,7.89
2019-03-15T22:18:05.746Z,7.86
2019-03-15T22:20:35.409Z,7.83
2019-03-15T22:23:05.699Z,7.79
2019-03-15T22:25:34.532Z,7.80
2019-03-15T22:28:03.467Z,7.78
2019-03-15T22:30:32.655Z,7.67
2019-03-15T22:33:03.948Z,7.64
2019-03-15T22:35:36.920Z,7.62
2019-03-15T22:38:09.593Z,7.61
2019-03-15T22:40:38.675Z,7.66
2019-03-15T22:43:16.621Z,7.61
2019-03-15T22:45:43.281Z,7.64
2019-03-15T22:48:12.073Z,7.59
2019-03-15T22:50:41.210Z,7.52
2019-03-15T22:53:10.526Z,7.49
2019-03-15T22:55:39.422Z,7.53
2019-03-15T22:58:08.510Z,7.60
2019-03-15T23:00:38.991Z,7.55
2019-03-15T23:03:09.426Z,7.58
2019-03-15T23:05:38.259Z,7.67
2019-03-15T23:08:07.466Z,7.61
2019-03-15T23:10:36.353Z,7.62
2019-03-15T23:13:05.829Z,7.64
2019-03-15T23:15:34.897Z,7.39
2019-03-15T23:18:04.189Z,7.60
2019-03-15T23:20:33.060Z,7.60
2019-03-15T23:23:01.922Z,7.68
2019-03-15T23:25:30.804Z,7.73
2019-03-15T23:27:59.662Z,7.74
2019-03-15T23:30:28.279Z,7.73
2019-03-15T23:32:57.139Z,7.72
2019-03-15T23:35:26.008Z,7.73
2019-03-15T23:37:54.862Z,7.69
2019-03-15T23:40:23.765Z,7.65
2019-03-15T23:42:52.453Z,7.63
2019-03-15T23:45:21.106Z,7.62
2019-03-15T23:47:49.692Z,7.62
2019-03-15T23:50:18.312Z,7.58
2019-03-15T23:52:47.045Z,7.49
2019-03-15T23:55:15.749Z,7.45
2019-03-15T23:57:44.524Z,7.47
